首页
METAR-TAF:

METAR-TAF

机场 :

Southern Wisconsin Regional Airport

Janesville, 威斯康辛州, 美国

纬度: 42-37N, 经度: 089-02W, 海拔: 246米

当前天气观测

该预报发布于10分钟前的12:45 UTC
风速5节,风向西转西南
温度 12°C
湿度 100%
气压 1007 hPa
能見度: 16.1公里
阴天层高于1500英尺

METAR: KJVL 281245Z 25005KT 10SM OVC015 12/12 A2975

时间: 07:55 (12:55 UTC)

预报

该预报发布于1小时和35分钟前的11:20 UTC
预报有效从28日的 12点(UTC)到 29日的 12点(UTC)
风速5节,风向西
能見度: 10公里
散云层高于800英尺
阴天层高于1500英尺
从 28日的 1600点(UTC)
风速9节,风向西转西北
能見度: 10公里
多云层高于2000英尺
附近有阵雨
从 28日的 2100点(UTC)
风速12节,风向西转西北
能見度: 10公里
多云层高于4500英尺
阴天层高于8000英尺
附近有阵雨
从 29日的 0100点(UTC)
风速7节,风向西转西北
能見度: 10公里
多云层高于10000英尺

TAF: KJVL 281120Z 2812/2912 26005KT P6SM SCT008 OVC015 FM281600 30009KT P6SM VCSH BKN020 FM282100 30012KT P6SM VCSH BKN045 OVC080 FM290100 30007KT P6SM BKN100

超过4000个机场的气象观测和天气预报(METAR&TAF报告)。

可查询的气象台以黄色和红色小点在地图上表示。

将鼠标移到小点上方,可查看气象台名称。

然后点击查看天气观测和预报。

如需切换地图:点击带黑十字的绿色按钮放大地图;点击带横线的绿色按钮缩小地图;或者点击绿色箭头查看邻近地区的地图。


METAR-TAF: